Aeroporto :
LOGIN :

Iscrizione | Disclaimer

   EN    FR    IT 

 










Sommario :    VFR   VFR Marginale   IFR   IFR Intensivo   IFR Molto Intensivo
Visibilità : 
Base nubi : 
>= 8 km
>= 3000ft
5 / 8 km
1000 / 3000 ft
1500m / 5 km
500 / 1000 ft
800 / 1500m
200 / 500 ft
< 800m
< 200 ft
Simboli :   Temporali  Nebbia  Neve Forte  Precipitazioni Forti  Vento > 20 kt
SIGMETs :   Varie  Temporali  Ghiacco  Turbolenza  Onda orograficha  Ceneri Vulcaniche






- Altitudine del aeroporto : 405 ft
- Codice IATA : ODH


EGVO - RAF Odiham

ULTIMO METAR :
  • 022150Z 18002KT CAVOK 11/10 Q1014 NOSIG RMK BLU BLU

METARs OBSOLETI :
  • 022120Z 14003KT 9999 FEW014 SCT130 BKN200 13/10 Q1014 NOSIG RMK BLU BLU
  • 022050Z 15005KT 9999 FEW013 BKN140 BKN200 14/12 Q1014 NOSIG RMK BLU BLU
  • 022023Z 26001KT 9999 FEW014 SCT090 BKN130 14/12 Q1014 NOSIG RMK BLU BLU
  • 021950Z 29002KT 9999 FEW040 BKN150 BKN250 15/12 Q1014 NOSIG RMK BLU BLU
  • 021924Z 12003KT 9999 FEW012 SCT100 BKN160 15/12 Q1014 TEMPO SCT020 RMK BLU TEMPO WHT

TAF TAF EGVO
Valido dal 02 a 21 ore il 03 a 09 ore UTC


021921Z 0221/0309 12005KT 9999 SCT045
PROB40 0300/0303 7000 HZ
PROB30 0303/0307 4000 BR



MetMap, La meteo Aeronautica in un colpo d'occhio ! - Copyright ORBIFLY Dicembre 2007 - Disclaimer

ORBIFLY MET'MAP TEAM :

Programmazione e sviluppo : Alexandra Zaïnal
Concezione : Baudouin d'Aumeries
Aiuto per la programmazione : Marc-Olivier Méhu
Supporto tecnico e logistico : Manuel Goepfert
Aiuto per la traduzione : Arnaldo La Scala

Contatto : metmap@orbifly.com




FONTI E CREDITI :

   NOAA